createdAt,value
2022-10-25T00:02:23.614Z,23.90
2022-10-25T00:04:50.866Z,10.90
2022-10-25T00:07:17.797Z,1.00
2022-10-25T00:09:44.671Z,1.00
2022-10-25T00:12:11.556Z,1.00
2022-10-25T00:14:38.591Z,1.00
2022-10-25T00:17:05.506Z,1.00
2022-10-25T00:19:32.502Z,1.00
2022-10-25T00:21:59.422Z,1.00
2022-10-25T00:24:26.490Z,1.00
2022-10-25T00:26:53.463Z,1.00
2022-10-25T00:29:20.465Z,1.00
2022-10-25T00:31:47.763Z,1.00
2022-10-25T00:34:14.693Z,1.00
2022-10-25T00:36:41.576Z,1.00
2022-10-25T00:39:08.501Z,1.00
2022-10-25T00:41:35.700Z,1.00
2022-10-25T00:44:41.554Z,1.00
2022-10-25T00:47:39.792Z,13.40
2022-10-25T00:50:09.528Z,55.10
2022-10-25T00:52:38.364Z,83.90
2022-10-25T00:55:07.610Z,99.90
2022-10-25T00:58:11.725Z,99.90
2022-10-25T01:00:38.897Z,99.90
2022-10-25T01:03:06.858Z,99.90
2022-10-25T01:05:35.342Z,99.90
2022-10-25T01:08:02.453Z,99.90
2022-10-25T01:10:30.076Z,99.90
2022-10-25T01:12:57.322Z,99.90
2022-10-25T01:15:29.728Z,99.90
2022-10-25T01:18:14.934Z,99.90
2022-10-25T01:20:59.392Z,99.90
2022-10-25T01:23:44.773Z,99.90
2022-10-25T01:26:11.619Z,99.90
2022-10-25T01:28:59.532Z,99.90
2022-10-25T01:31:39.427Z,99.90
2022-10-25T01:34:17.600Z,99.90
2022-10-25T01:37:25.894Z,99.90
2022-10-25T01:40:28.665Z,99.90
2022-10-25T01:43:30.667Z,99.90
2022-10-25T01:46:06.673Z,1.00
2022-10-25T01:48:41.336Z,1.00
2022-10-25T01:51:14.790Z,1.00
2022-10-25T01:53:46.185Z,1.00
2022-10-25T01:56:19.013Z,1.00
2022-10-25T01:58:55.571Z,1.00
2022-10-25T02:01:39.133Z,1.00
2022-10-25T02:04:16.162Z,1.00
2022-10-25T02:07:10.730Z,1.00
2022-10-25T02:10:02.536Z,1.00
2022-10-25T02:12:51.916Z,1.00
2022-10-25T02:15:27.861Z,22.10
2022-10-25T02:18:04.956Z,54.00
2022-10-25T02:20:35.894Z,81.60
2022-10-25T02:23:05.947Z,99.90
2022-10-25T02:25:39.781Z,99.90
2022-10-25T02:28:10.304Z,99.90
2022-10-25T02:30:38.661Z,99.90
2022-10-25T02:33:05.994Z,99.90
2022-10-25T02:35:32.980Z,99.90
2022-10-25T02:38:00.041Z,99.90
2022-10-25T02:40:27.935Z,99.90
2022-10-25T02:42:54.826Z,99.90
2022-10-25T02:45:21.814Z,99.90
2022-10-25T02:47:49.070Z,99.90
2022-10-25T02:50:16.186Z,99.90
2022-10-25T02:52:43.240Z,99.90
2022-10-25T02:55:10.420Z,99.90
2022-10-25T02:57:38.471Z,99.90
2022-10-25T03:00:07.654Z,99.90
2022-10-25T03:02:34.639Z,99.90
2022-10-25T03:05:01.604Z,99.90
2022-10-25T03:07:28.547Z,99.90
2022-10-25T03:09:55.443Z,99.90
2022-10-25T03:12:22.361Z,99.90
2022-10-25T03:14:49.264Z,99.90
2022-10-25T03:17:16.172Z,99.90
2022-10-25T03:19:43.111Z,99.90
2022-10-25T03:22:09.990Z,99.90
2022-10-25T03:24:36.966Z,99.90
2022-10-25T03:27:03.912Z,99.90
2022-10-25T03:29:30.836Z,99.90
2022-10-25T03:31:58.739Z,99.90
2022-10-25T03:34:25.835Z,99.90
2022-10-25T03:36:52.723Z,99.90
2022-10-25T03:39:19.581Z,99.90
2022-10-25T03:41:46.545Z,99.90
2022-10-25T03:44:13.440Z,99.90
2022-10-25T03:46:40.344Z,99.90
2022-10-25T03:49:07.290Z,1.00
2022-10-25T03:51:34.402Z,1.00
2022-10-25T03:54:01.339Z,1.00
2022-10-25T03:56:28.243Z,1.00
2022-10-25T03:58:55.157Z,1.00
2022-10-25T04:01:22.159Z,1.00
2022-10-25T04:03:49.110Z,1.00
2022-10-25T04:06:15.999Z,1.00
2022-10-25T04:08:42.867Z,99.90
2022-10-25T04:11:09.855Z,99.90
2022-10-25T04:13:36.774Z,99.90
2022-10-25T04:16:09.955Z,99.90
2022-10-25T04:18:36.885Z,99.90
2022-10-25T04:21:03.899Z,99.90
2022-10-25T04:23:31.495Z,99.90
2022-10-25T04:25:58.614Z,99.90
2022-10-25T04:28:26.100Z,99.90
2022-10-25T04:30:53.044Z,99.90
2022-10-25T04:33:19.967Z,99.90
2022-10-25T04:35:56.997Z,99.90
2022-10-25T04:38:24.911Z,99.90
2022-10-25T04:40:59.296Z,99.90
2022-10-25T04:43:27.948Z,99.90
2022-10-25T04:45:55.364Z,99.90
2022-10-25T04:48:22.261Z,99.90
2022-10-25T04:50:49.256Z,99.90
2022-10-25T04:53:16.122Z,99.90
2022-10-25T04:55:43.268Z,99.90
2022-10-25T04:58:10.216Z,99.90
2022-10-25T05:00:37.156Z,99.90
2022-10-25T05:03:04.137Z,99.90
2022-10-25T05:05:31.040Z,99.90
2022-10-25T05:07:57.968Z,99.90
2022-10-25T05:10:24.925Z,99.90
2022-10-25T05:12:54.580Z,99.90
2022-10-25T05:15:21.424Z,99.90
2022-10-25T05:17:48.327Z,99.90
2022-10-25T05:20:15.312Z,99.90
2022-10-25T05:22:42.296Z,99.90
2022-10-25T05:25:09.635Z,99.10
2022-10-25T05:27:39.305Z,99.90
2022-10-25T05:30:07.097Z,99.90
2022-10-25T05:32:34.112Z,96.70
2022-10-25T05:35:01.172Z,99.90
2022-10-25T05:37:28.227Z,81.10
2022-10-25T05:39:55.109Z,45.20
2022-10-25T05:42:22.099Z,1.00
2022-10-25T05:44:48.991Z,1.00
2022-10-25T05:47:15.921Z,1.00
2022-10-25T05:49:42.847Z,1.00
2022-10-25T05:52:10.367Z,1.00
2022-10-25T05:54:37.323Z,1.00
2022-10-25T05:57:04.284Z,1.00
2022-10-25T05:59:31.188Z,99.90
2022-10-25T06:01:58.152Z,99.90
2022-10-25T06:04:25.223Z,99.90
2022-10-25T06:06:53.155Z,99.90
2022-10-25T06:09:20.108Z,99.90
2022-10-25T06:11:47.023Z,99.90
2022-10-25T06:14:13.955Z,99.90
2022-10-25T06:16:40.876Z,99.90
2022-10-25T06:19:07.928Z,99.90
2022-10-25T06:21:35.008Z,99.90
2022-10-25T06:24:01.863Z,99.90
2022-10-25T06:26:30.158Z,99.90
2022-10-25T06:29:02.564Z,99.90
2022-10-25T06:31:30.356Z,99.90
2022-10-25T06:33:58.784Z,99.90
2022-10-25T06:36:27.786Z,99.90
2022-10-25T06:38:54.906Z,99.90
2022-10-25T06:41:27.866Z,99.90
2022-10-25T06:43:55.393Z,99.90
2022-10-25T06:46:22.551Z,99.90
2022-10-25T06:48:50.276Z,99.90
2022-10-25T06:51:17.404Z,99.90
2022-10-25T06:53:44.659Z,99.90
2022-10-25T06:56:14.623Z,99.90
2022-10-25T06:58:42.466Z,99.90
2022-10-25T07:01:15.052Z,99.90
2022-10-25T07:03:43.031Z,99.90
2022-10-25T07:06:12.097Z,99.90
2022-10-25T07:08:44.750Z,99.90
2022-10-25T07:11:15.273Z,99.90
2022-10-25T07:13:42.616Z,99.90
2022-10-25T07:16:11.881Z,99.90
2022-10-25T07:18:38.914Z,99.90
2022-10-25T07:21:08.642Z,99.90
2022-10-25T07:23:41.941Z,99.90
2022-10-25T07:26:17.556Z,99.90
2022-10-25T07:28:46.706Z,99.90
2022-10-25T07:31:16.200Z,99.90
2022-10-25T07:33:43.512Z,99.90
2022-10-25T07:36:11.684Z,99.90
2022-10-25T07:38:39.059Z,99.90
2022-10-25T07:41:06.659Z,1.00
2022-10-25T07:43:33.602Z,1.00
2022-10-25T07:46:00.494Z,1.00
2022-10-25T07:48:27.900Z,1.00
2022-10-25T07:50:54.788Z,1.00
2022-10-25T07:53:21.621Z,1.00
2022-10-25T07:55:55.086Z,1.00
2022-10-25T07:58:22.089Z,1.00
2022-10-25T08:00:49.132Z,1.00
2022-10-25T08:03:17.567Z,1.00
2022-10-25T08:05:48.138Z,1.00
2022-10-25T08:08:15.311Z,1.00
2022-10-25T08:10:43.687Z,1.00
2022-10-25T08:13:11.449Z,1.00
2022-10-25T08:15:40.954Z,1.00
2022-10-25T08:18:09.755Z,1.00
2022-10-25T08:21:00.798Z,1.00
2022-10-25T08:23:26.169Z,1.00
2022-10-25T08:25:53.248Z,1.00
2022-10-25T08:28:20.482Z,1.00
2022-10-25T08:30:47.364Z,1.00
2022-10-25T08:33:14.466Z,1.00
2022-10-25T08:35:41.369Z,1.00
2022-10-25T08:38:08.299Z,99.90
2022-10-25T08:41:17.905Z,99.90
2022-10-25T08:44:42.165Z,99.90
2022-10-25T08:47:41.537Z,99.90
2022-10-25T08:50:16.870Z,39.00
2022-10-25T08:52:51.377Z,1.00
2022-10-25T08:55:28.955Z,1.00
2022-10-25T08:57:57.161Z,1.00
2022-10-25T09:00:24.559Z,1.00
2022-10-25T09:03:02.370Z,99.90
2022-10-25T09:05:39.627Z,99.90
2022-10-25T09:08:45.587Z,99.90
2022-10-25T09:11:30.249Z,99.90
2022-10-25T09:14:07.933Z,99.90
2022-10-25T09:16:42.206Z,78.80
2022-10-25T09:19:16.958Z,1.00
2022-10-25T09:21:50.788Z,1.00
2022-10-25T09:24:33.363Z,1.00
2022-10-25T09:27:40.416Z,1.00
2022-10-25T09:30:10.138Z,1.00
2022-10-25T09:32:41.053Z,1.00
2022-10-25T09:35:18.602Z,1.00
2022-10-25T09:37:52.195Z,1.00
2022-10-25T09:40:22.960Z,1.00
2022-10-25T09:43:14.650Z,1.00
2022-10-25T09:45:49.316Z,99.90
2022-10-25T09:48:25.037Z,99.90
2022-10-25T09:50:57.644Z,99.90
2022-10-25T09:53:24.638Z,99.90
2022-10-25T09:55:57.618Z,99.90
2022-10-25T09:58:31.737Z,99.90
2022-10-25T10:01:02.339Z,99.90
2022-10-25T10:03:32.033Z,99.90
2022-10-25T10:06:22.983Z,99.90
2022-10-25T10:09:03.019Z,99.90
2022-10-25T10:11:30.484Z,99.90
2022-10-25T10:14:27.334Z,99.90
2022-10-25T10:16:57.181Z,99.90
2022-10-25T10:19:26.233Z,99.90
2022-10-25T10:22:15.448Z,99.90
2022-10-25T10:24:44.433Z,99.90
2022-10-25T10:27:23.483Z,99.90
2022-10-25T10:29:58.945Z,99.90
2022-10-25T10:35:30.795Z,96.20
2022-10-25T10:38:23.949Z,28.50
2022-10-25T10:40:53.076Z,23.20
2022-10-25T10:43:27.335Z,1.00
2022-10-25T10:45:58.978Z,1.00
2022-10-25T10:48:25.938Z,1.00
2022-10-25T10:50:52.963Z,1.00
2022-10-25T10:53:29.549Z,1.00
2022-10-25T10:55:58.192Z,1.00
2022-10-25T10:58:37.569Z,1.00
2022-10-25T11:01:13.480Z,1.00
2022-10-25T11:04:00.599Z,1.00
2022-10-25T11:06:29.233Z,1.00
2022-10-25T11:09:18.105Z,1.00
2022-10-25T11:11:46.232Z,1.00
2022-10-25T11:14:17.546Z,1.00
2022-10-25T11:17:26.321Z,1.00
2022-10-25T11:19:57.181Z,1.00
2022-10-25T11:22:50.781Z,1.00
2022-10-25T11:25:32.638Z,1.00
2022-10-25T11:28:33.099Z,1.00
2022-10-25T11:31:37.265Z,1.00
2022-10-25T11:34:22.837Z,1.00
2022-10-25T11:37:19.007Z,1.00
2022-10-25T11:40:05.857Z,1.00
2022-10-25T11:43:02.105Z,1.00
2022-10-25T11:45:48.547Z,1.00
2022-10-25T11:48:37.000Z,1.00
2022-10-25T11:51:22.606Z,1.00
2022-10-25T11:54:04.315Z,1.00
2022-10-25T11:56:59.756Z,1.00
2022-10-25T11:59:43.901Z,1.00
2022-10-25T12:02:22.878Z,1.00
2022-10-25T12:05:23.696Z,1.00
2022-10-25T12:07:53.491Z,1.00
2022-10-25T12:13:30.215Z,1.00
2022-10-25T12:15:58.508Z,1.00
2022-10-25T12:18:39.488Z,1.00
2022-10-25T12:21:07.908Z,1.00
2022-10-25T12:23:55.033Z,1.00
2022-10-25T12:26:35.067Z,1.00
2022-10-25T12:29:19.022Z,1.00
2022-10-25T12:31:58.860Z,1.00
2022-10-25T12:34:49.311Z,1.00
2022-10-25T12:37:24.222Z,1.00
2022-10-25T12:39:52.328Z,1.00
2022-10-25T12:42:24.508Z,1.00
2022-10-25T12:45:09.515Z,1.00
2022-10-25T12:48:13.999Z,1.00
2022-10-25T12:50:53.366Z,1.00
2022-10-25T12:53:42.230Z,1.00
2022-10-25T12:56:34.087Z,1.00
2022-10-25T12:59:21.855Z,99.90
2022-10-25T13:02:10.864Z,99.90
2022-10-25T13:04:40.459Z,99.90
2022-10-25T13:07:08.942Z,99.90
2022-10-25T13:09:38.115Z,99.90
2022-10-25T13:12:09.129Z,99.90
2022-10-25T13:14:47.637Z,99.90
2022-10-25T13:17:20.153Z,1.00
2022-10-25T13:19:54.516Z,1.00
2022-10-25T13:22:46.876Z,1.00
2022-10-25T13:25:13.785Z,1.00
2022-10-25T13:28:15.671Z,1.00
2022-10-25T13:30:44.219Z,1.00
2022-10-25T13:33:22.589Z,1.00
2022-10-25T13:35:49.451Z,1.00
2022-10-25T13:38:36.554Z,1.00
2022-10-25T13:41:06.862Z,1.00
2022-10-25T13:43:34.137Z,1.00
2022-10-25T13:46:01.243Z,1.00
2022-10-25T13:48:35.939Z,1.00
2022-10-25T13:51:14.648Z,1.00
2022-10-25T13:53:45.812Z,99.90
2022-10-25T13:56:16.164Z,1.00
2022-10-25T13:58:46.140Z,1.00
2022-10-25T14:01:16.139Z,1.00
2022-10-25T14:03:51.892Z,1.00
2022-10-25T14:06:36.474Z,1.00
2022-10-25T14:09:09.102Z,1.00
2022-10-25T14:11:53.842Z,1.00
2022-10-25T14:14:43.566Z,1.00
2022-10-25T14:17:34.783Z,1.00
2022-10-25T14:20:10.618Z,1.00
2022-10-25T14:22:51.732Z,1.00
2022-10-25T14:25:18.560Z,1.00
2022-10-25T14:27:45.556Z,1.00
2022-10-25T14:30:28.060Z,1.00
2022-10-25T14:32:57.361Z,1.00
2022-10-25T14:35:28.852Z,1.00
2022-10-25T14:37:55.824Z,1.00
2022-10-25T14:40:26.091Z,1.00
2022-10-25T14:42:56.937Z,1.00
2022-10-25T14:45:26.451Z,1.00
2022-10-25T14:47:53.612Z,1.00
2022-10-25T14:50:25.767Z,1.00
2022-10-25T14:52:54.877Z,1.00
2022-10-25T14:55:49.379Z,1.00
2022-10-25T14:58:16.337Z,1.00
2022-10-25T15:00:56.973Z,1.00
2022-10-25T15:03:26.331Z,1.00
2022-10-25T15:05:53.558Z,1.00
2022-10-25T15:08:23.606Z,1.00
2022-10-25T15:10:56.330Z,1.00
2022-10-25T15:13:29.169Z,1.00
2022-10-25T15:15:57.540Z,1.00
2022-10-25T15:18:28.266Z,1.00
2022-10-25T15:21:06.525Z,1.00
2022-10-25T15:23:34.359Z,1.00
2022-10-25T15:26:20.048Z,1.00
2022-10-25T15:28:58.609Z,1.00
2022-10-25T15:31:31.410Z,1.00
2022-10-25T15:34:05.753Z,5.10
2022-10-25T15:36:34.231Z,1.00
2022-10-25T15:39:10.451Z,1.00
2022-10-25T15:41:41.162Z,1.00
2022-10-25T15:44:07.993Z,1.00
2022-10-25T15:46:35.589Z,1.00
2022-10-25T15:49:06.868Z,1.00
2022-10-25T15:51:36.157Z,1.00
2022-10-25T15:54:03.115Z,1.00
2022-10-25T15:56:30.006Z,1.00
2022-10-25T15:58:58.777Z,1.00
2022-10-25T16:01:25.834Z,1.00
2022-10-25T16:03:52.768Z,7.80
2022-10-25T16:06:19.611Z,16.70
2022-10-25T16:08:46.520Z,25.90
2022-10-25T16:11:21.213Z,36.80
2022-10-25T16:13:51.816Z,44.20
2022-10-25T16:16:39.469Z,55.90
2022-10-25T16:19:11.815Z,74.70
2022-10-25T16:21:38.679Z,99.90
2022-10-25T16:24:05.740Z,99.90
2022-10-25T16:26:41.714Z,99.90
2022-10-25T16:29:20.102Z,99.90
2022-10-25T16:31:47.121Z,99.90
2022-10-25T16:34:17.293Z,99.90
2022-10-25T16:36:44.876Z,99.90
2022-10-25T16:39:12.011Z,99.90
2022-10-25T16:41:46.804Z,99.90
2022-10-25T16:44:15.807Z,99.90
2022-10-25T16:46:42.825Z,99.90
2022-10-25T16:49:09.880Z,99.90
2022-10-25T16:51:38.132Z,99.90
2022-10-25T16:54:05.696Z,99.90
2022-10-25T16:56:32.675Z,99.90
2022-10-25T16:59:00.591Z,99.90
2022-10-25T17:01:32.626Z,99.90
2022-10-25T17:04:00.307Z,99.90
2022-10-25T17:06:43.078Z,99.90
2022-10-25T17:09:10.815Z,99.90
2022-10-25T17:11:37.964Z,99.90
2022-10-25T17:14:05.349Z,99.90
2022-10-25T17:16:32.327Z,99.90
2022-10-25T17:18:59.217Z,99.90
2022-10-25T17:21:28.133Z,99.90
2022-10-25T17:23:56.349Z,99.90
2022-10-25T17:26:23.293Z,99.90
2022-10-25T17:28:50.162Z,99.90
2022-10-25T17:31:17.696Z,99.90
2022-10-25T17:33:45.008Z,99.90
2022-10-25T17:36:14.756Z,99.90
2022-10-25T17:38:42.451Z,99.90
2022-10-25T17:41:09.942Z,99.90
2022-10-25T17:43:38.537Z,99.90
2022-10-25T17:46:14.058Z,99.90
2022-10-25T17:48:40.920Z,99.90
2022-10-25T17:51:11.090Z,99.90
2022-10-25T17:53:38.173Z,99.90
2022-10-25T17:56:16.452Z,99.90
2022-10-25T17:58:45.594Z,1.00
2022-10-25T18:01:14.783Z,1.00
2022-10-25T18:03:41.884Z,1.00
2022-10-25T18:06:11.105Z,1.00
2022-10-25T18:08:38.399Z,1.00
2022-10-25T18:11:19.490Z,1.00
2022-10-25T18:13:46.354Z,1.00
2022-10-25T18:16:13.923Z,20.10
2022-10-25T18:18:40.939Z,59.00
2022-10-25T18:21:12.184Z,64.70
2022-10-25T18:23:39.949Z,99.90
2022-10-25T18:26:08.055Z,99.90
2022-10-25T18:28:36.084Z,99.90
2022-10-25T18:31:05.988Z,99.90
2022-10-25T18:33:33.997Z,99.90
2022-10-25T18:36:03.479Z,99.90
2022-10-25T18:38:30.576Z,99.90
2022-10-25T18:40:57.508Z,99.90
2022-10-25T18:43:25.247Z,99.90
2022-10-25T18:45:59.507Z,99.90
2022-10-25T18:48:27.247Z,99.90
2022-10-25T18:50:54.217Z,99.90
2022-10-25T18:53:21.646Z,99.90
2022-10-25T18:55:53.009Z,99.90
2022-10-25T18:58:19.921Z,99.90
2022-10-25T19:00:47.083Z,99.90
2022-10-25T19:03:15.632Z,99.90
2022-10-25T19:05:44.243Z,99.90
2022-10-25T19:08:12.176Z,99.90
2022-10-25T19:10:40.445Z,99.90
2022-10-25T19:13:08.682Z,99.90
2022-10-25T19:15:37.412Z,99.90
2022-10-25T19:18:04.367Z,99.90
2022-10-25T19:20:31.268Z,99.90
2022-10-25T19:22:58.789Z,99.90
2022-10-25T19:25:29.823Z,99.90
2022-10-25T19:27:57.138Z,99.90
2022-10-25T19:30:24.437Z,99.90
2022-10-25T19:32:51.856Z,99.90
2022-10-25T19:35:19.520Z,99.90
2022-10-25T19:37:46.856Z,99.90
2022-10-25T19:40:13.995Z,99.90
2022-10-25T19:42:43.360Z,99.90
2022-10-25T19:45:10.682Z,99.90
2022-10-25T19:47:37.652Z,99.90
2022-10-25T19:50:08.351Z,99.90
2022-10-25T19:52:36.249Z,99.90
2022-10-25T19:55:06.154Z,99.90
2022-10-25T19:57:34.000Z,99.90
2022-10-25T20:00:09.970Z,99.90
2022-10-25T20:02:39.890Z,99.90
2022-10-25T20:05:07.149Z,99.90
2022-10-25T20:07:36.008Z,99.90
2022-10-25T20:10:03.128Z,99.90
2022-10-25T20:12:30.647Z,1.00
2022-10-25T20:15:00.953Z,1.00
2022-10-25T20:17:28.013Z,1.00
2022-10-25T20:19:55.269Z,1.00
2022-10-25T20:22:23.229Z,1.00
2022-10-25T20:24:50.239Z,1.00
2022-10-25T20:27:18.754Z,1.00
2022-10-25T20:29:45.660Z,1.00
2022-10-25T20:32:13.902Z,1.00
2022-10-25T20:34:40.888Z,1.00
2022-10-25T20:37:10.179Z,1.00
2022-10-25T20:39:39.436Z,1.00
2022-10-25T20:42:09.019Z,1.00
2022-10-25T20:44:36.601Z,1.00
2022-10-25T20:47:03.555Z,1.00
2022-10-25T20:49:30.436Z,1.00
2022-10-25T20:51:57.355Z,1.00
2022-10-25T20:54:24.260Z,1.00
2022-10-25T20:56:51.160Z,1.00
2022-10-25T20:59:18.115Z,1.00
2022-10-25T21:01:45.757Z,1.00
2022-10-25T21:04:16.136Z,1.00
2022-10-25T21:06:45.779Z,1.00
2022-10-25T21:09:12.689Z,1.00
2022-10-25T21:11:39.643Z,1.00
2022-10-25T21:14:06.619Z,1.00
2022-10-25T21:16:33.627Z,1.00
2022-10-25T21:19:03.931Z,11.90
2022-10-25T21:21:31.012Z,1.00
2022-10-25T21:23:58.084Z,7.80
2022-10-25T21:26:25.019Z,14.70
2022-10-25T21:28:54.842Z,15.40
2022-10-25T21:31:21.916Z,4.60
2022-10-25T21:33:51.116Z,1.00
2022-10-25T21:36:19.494Z,1.00
2022-10-25T21:38:47.029Z,1.00
2022-10-25T21:41:27.120Z,1.00
2022-10-25T21:43:55.573Z,1.00
2022-10-25T21:46:24.248Z,1.00
2022-10-25T21:48:51.682Z,1.00
2022-10-25T21:51:19.951Z,1.00
2022-10-25T21:53:47.587Z,1.00
2022-10-25T21:56:17.448Z,1.00
2022-10-25T21:58:46.489Z,1.00
2022-10-25T22:01:15.428Z,1.00
2022-10-25T22:03:42.613Z,1.00
2022-10-25T22:06:11.807Z,1.00
2022-10-25T22:08:39.391Z,1.00
2022-10-25T22:11:10.962Z,1.00
2022-10-25T22:13:38.046Z,1.00
2022-10-25T22:16:12.494Z,1.00
2022-10-25T22:18:40.011Z,1.00
2022-10-25T22:21:10.335Z,1.00
2022-10-25T22:23:39.732Z,1.00
2022-10-25T22:26:09.275Z,1.00
2022-10-25T22:28:39.944Z,1.00
2022-10-25T22:31:17.124Z,1.00
2022-10-25T22:33:45.062Z,1.00
2022-10-25T22:36:19.899Z,1.00
2022-10-25T22:38:47.554Z,1.00
2022-10-25T22:41:20.046Z,1.00
2022-10-25T22:43:48.183Z,1.00
2022-10-25T22:46:25.357Z,1.00
2022-10-25T22:48:57.625Z,11.10
2022-10-25T22:51:26.171Z,54.00
2022-10-25T22:53:53.140Z,93.10
2022-10-25T22:56:22.562Z,99.90
2022-10-25T22:58:56.175Z,99.90
2022-10-25T23:01:29.390Z,99.90
2022-10-25T23:03:58.227Z,99.90
2022-10-25T23:06:34.022Z,99.90
2022-10-25T23:09:03.646Z,99.90
2022-10-25T23:11:32.828Z,99.90
2022-10-25T23:14:01.285Z,99.90
2022-10-25T23:16:29.435Z,1.00
2022-10-25T23:18:56.755Z,1.00
2022-10-25T23:21:25.915Z,1.00
2022-10-25T23:23:53.801Z,1.00
2022-10-25T23:26:26.002Z,1.00
2022-10-25T23:28:54.653Z,1.00
2022-10-25T23:31:21.735Z,1.00
2022-10-25T23:33:55.203Z,2.00
2022-10-25T23:36:24.713Z,14.90
2022-10-25T23:38:52.898Z,27.20
2022-10-25T23:41:21.103Z,32.60
2022-10-25T23:43:49.261Z,56.60
2022-10-25T23:46:16.697Z,86.90
2022-10-25T23:48:43.750Z,99.90
2022-10-25T23:51:13.316Z,99.90
2022-10-25T23:53:41.051Z,99.90
2022-10-25T23:56:10.158Z,99.90
2022-10-25T23:58:37.287Z,99.90
